Time;durP1;ratioP1;P1;durP2;ratioP2;P2;SDS_P1;SDS_P2;PMS_P1;PMS_P2;Temp;Humidity;BMP_temperature;BMP_pressure;BME280_temperature;BME280_humidity;BME280_pressure;Samples;Min_cycle;Max_cycle;Signal;HPM_P1;HPM_P2
2022/11/07 00:00:00;;;;;;;8.18;6.40;;;6.90;99.90;;;;;;4993999;28;20228;-83
2022/11/07 00:02:29;;;;;;;7.90;5.97;;;6.90;99.90;;;;;;4994235;28;20214;-82
2022/11/07 00:04:57;;;;;;;6.72;5.45;;;6.80;99.90;;;;;;4994420;28;20219;-83
2022/11/07 00:07:27;;;;;;;6.38;4.78;;;6.90;99.90;;;;;;4994248;28;20217;-83
2022/11/07 00:09:55;;;;;;;5.05;4.50;;;6.80;99.90;;;;;;4994350;28;20222;-83
2022/11/07 00:12:23;;;;;;;6.72;4.53;;;6.80;99.90;;;;;;4993855;28;20208;-82
2022/11/07 00:14:52;;;;;;;5.53;5.00;;;6.80;99.90;;;;;;4993900;28;20214;-82
2022/11/07 00:17:23;;;;;;;5.30;4.78;;;6.80;99.90;;;;;;4993695;28;20208;-82
2022/11/07 00:19:51;;;;;;;5.32;4.82;;;6.80;99.90;;;;;;4993985;28;20214;-82
2022/11/07 00:22:19;;;;;;;6.43;4.82;;;6.80;99.90;;;;;;4994213;28;20222;-82
2022/11/07 00:24:51;;;;;;;8.15;5.82;;;6.80;99.90;;;;;;4995505;28;20230;-82
2022/11/07 00:27:26;;;;;;;7.50;5.00;;;6.80;99.90;;;;;;4994038;28;20203;-83
2022/11/07 00:30:16;;;;;;;15.95;5.03;;;6.80;99.90;;;;;;4993488;28;20214;-83
2022/11/07 00:32:58;;;;;;;6.40;5.15;;;6.80;99.90;;;;;;4935638;29;20229;-83
2022/11/07 00:38:48;;;;;;;6.03;4.97;;;6.80;99.90;;;;;;4879131;29;20304;-82
2022/11/07 00:41:36;;;;;;;7.18;5.28;;;6.70;99.90;;;;;;4878936;29;20227;-84
2022/11/07 00:44:19;;;;;;;5.85;4.60;;;6.70;99.90;;;;;;4879271;29;20232;-82
2022/11/07 00:46:56;;;;;;;5.28;4.22;;;6.80;99.90;;;;;;4879002;29;20208;-82
2022/11/07 00:49:25;;;;;;;5.93;4.03;;;6.80;99.90;;;;;;4879628;29;20212;-84
2022/11/07 00:51:54;;;;;;;4.97;4.47;;;6.80;99.90;;;;;;4879061;29;20267;-83
2022/11/07 00:54:23;;;;;;;6.13;4.90;;;6.70;99.90;;;;;;4879780;29;20235;-83
2022/11/07 00:56:52;;;;;;;5.05;3.67;;;6.80;99.90;;;;;;4890725;29;20217;-83
2022/11/07 00:59:20;;;;;;;5.10;3.35;;;6.70;99.90;;;;;;4935585;29;20205;-82
2022/11/07 01:01:49;;;;;;;4.65;3.35;;;6.70;99.90;;;;;;4935532;29;20240;-82
2022/11/07 01:07:05;;;;;;;3.25;2.75;;;6.70;99.90;;;;;;4975783;28;20204;-82
2022/11/07 01:09:34;;;;;;;3.45;3.15;;;6.80;99.90;;;;;;4974885;28;20204;-82
2022/11/07 01:12:07;;;;;;;4.25;3.03;;;6.80;99.90;;;;;;4975624;28;20296;-83
2022/11/07 01:14:36;;;;;;;2.53;2.28;;;6.80;99.90;;;;;;4975788;28;20315;-82
2022/11/07 01:17:04;;;;;;;4.18;3.28;;;6.80;99.90;;;;;;4975821;28;20212;-82
2022/11/07 01:19:32;;;;;;;4.35;3.20;;;6.80;99.90;;;;;;4975947;28;20210;-83
2022/11/07 01:22:00;;;;;;;4.70;3.22;;;6.80;99.90;;;;;;4975479;28;20224;-82
2022/11/07 01:24:29;;;;;;;5.50;3.20;;;6.80;99.90;;;;;;4975769;28;20227;-84
2022/11/07 01:26:57;;;;;;;17.42;3.33;;;6.90;99.90;;;;;;4975411;28;20215;-82
2022/11/07 01:29:27;;;;;;;25.60;4.10;;;6.80;99.90;;;;;;4976130;28;20212;-82
2022/11/07 01:31:55;;;;;;;3.30;3.00;;;6.90;99.90;;;;;;4975591;28;20215;-82
2022/11/07 01:34:23;;;;;;;4.15;3.33;;;6.90;99.90;;;;;;4975337;28;20263;-82
2022/11/07 01:36:52;;;;;;;3.83;3.30;;;6.90;99.90;;;;;;4975346;28;20212;-82
2022/11/07 01:40:03;;;;;;;3.95;3.30;;;6.90;99.90;;;;;;4975460;28;20212;-82
2022/11/07 01:42:31;;;;;;;4.68;3.50;;;6.90;99.90;;;;;;4970503;28;20234;-82
2022/11/07 01:45:01;;;;;;;3.78;3.38;;;7.00;99.90;;;;;;4975458;28;20212;-82
2022/11/07 01:47:33;;;;;;;3.88;3.30;;;7.00;99.90;;;;;;4975047;28;20208;-82
2022/11/07 01:50:01;;;;;;;5.03;3.78;;;7.00;99.90;;;;;;4975116;28;20208;-83
2022/11/07 01:52:33;;;;;;;2.85;2.60;;;7.00;99.90;;;;;;4974786;28;20200;-84
2022/11/07 01:55:08;;;;;;;3.60;2.70;;;7.10;99.90;;;;;;4975103;28;20235;-83
2022/11/07 01:57:44;;;;;;;3.60;3.28;;;7.00;99.90;;;;;;4974947;28;20210;-82
2022/11/07 02:00:18;;;;;;;4.00;3.50;;;7.00;99.90;;;;;;4975139;28;20214;-82
2022/11/07 02:02:49;;;;;;;3.88;3.58;;;7.10;99.90;;;;;;4974422;28;20232;-81
2022/11/07 02:05:24;;;;;;;5.05;3.55;;;7.10;99.90;;;;;;4974914;28;20223;-82
2022/11/07 02:07:56;;;;;;;7.50;3.67;;;7.20;99.90;;;;;;4975056;28;20203;-82
2022/11/07 02:10:26;;;;;;;5.95;3.35;;;7.10;99.90;;;;;;4974782;28;20223;-82
2022/11/07 02:12:57;;;;;;;4.70;3.50;;;7.10;99.90;;;;;;4974605;28;20234;-82
2022/11/07 02:15:27;;;;;;;3.60;3.30;;;7.10;99.90;;;;;;4974866;28;20223;-82
2022/11/07 02:17:57;;;;;;;3.00;2.70;;;7.10;99.90;;;;;;4974534;28;20208;-83
2022/11/07 02:20:25;;;;;;;3.55;3.13;;;7.10;99.90;;;;;;4975163;28;20201;-83
2022/11/07 02:25:41;;;;;;;5.32;2.95;;;7.00;99.90;;;;;;4974576;28;20208;-82
2022/11/07 02:28:12;;;;;;;4.05;3.05;;;6.90;99.90;;;;;;4974091;28;20212;-82
2022/11/07 02:30:40;;;;;;;3.20;2.90;;;6.90;99.90;;;;;;4974291;28;20204;-82
2022/11/07 02:33:18;;;;;;;5.88;3.13;;;6.70;99.90;;;;;;4974376;28;20239;-83
2022/11/07 02:35:47;;;;;;;4.07;3.45;;;6.60;99.90;;;;;;4974333;28;20324;-82
2022/11/07 02:38:19;;;;;;;3.50;3.05;;;6.60;99.90;;;;;;4974481;28;20227;-83
2022/11/07 02:40:52;;;;;;;6.50;3.55;;;6.60;99.90;;;;;;4974377;28;20213;-81
2022/11/07 02:43:23;;;;;;;4.60;4.03;;;6.70;99.90;;;;;;4973941;28;20236;-82
2022/11/07 02:45:52;;;;;;;3.30;3.00;;;6.70;99.90;;;;;;4974602;28;20212;-82
2022/11/07 02:48:20;;;;;;;3.30;2.88;;;6.60;99.90;;;;;;4974081;28;20208;-82
2022/11/07 02:50:48;;;;;;;4.10;3.55;;;6.70;99.90;;;;;;4974046;28;20227;-82
2022/11/07 02:53:16;;;;;;;8.75;3.60;;;6.70;99.90;;;;;;4973902;28;20228;-82
2022/11/07 02:55:45;;;;;;;6.13;3.38;;;6.70;99.90;;;;;;4973980;28;20240;-82
2022/11/07 02:58:15;;;;;;;3.47;3.17;;;6.70;99.90;;;;;;4974089;28;20208;-83
2022/11/07 03:00:44;;;;;;;5.00;4.05;;;6.70;99.90;;;;;;4974095;28;20216;-82
2022/11/07 03:03:13;;;;;;;3.30;2.53;;;6.70;99.90;;;;;;4973397;28;20238;-82
2022/11/07 03:05:42;;;;;;;2.40;2.17;;;6.80;99.90;;;;;;4973969;28;20219;-82
2022/11/07 03:08:10;;;;;;;3.13;2.83;;;7.00;99.90;;;;;;4973351;28;20211;-83
2022/11/07 03:10:39;;;;;;;2.67;2.33;;;7.10;99.90;;;;;;4973938;28;20223;-83
2022/11/07 03:13:08;;;;;;;3.03;2.72;;;7.20;99.90;;;;;;4973695;28;20221;-82
2022/11/07 03:15:38;;;;;;;3.15;2.63;;;7.30;99.90;;;;;;4973868;28;20216;-82
2022/11/07 03:18:06;;;;;;;2.65;2.45;;;7.40;99.90;;;;;;4973824;28;20212;-82
2022/11/07 03:20:34;;;;;;;2.75;2.55;;;7.50;99.90;;;;;;4973864;28;20200;-82
2022/11/07 03:23:03;;;;;;;2.50;2.30;;;7.50;99.90;;;;;;4973397;28;20235;-83
2022/11/07 03:25:31;;;;;;;5.68;2.92;;;7.70;99.90;;;;;;4973804;28;20211;-82
2022/11/07 03:27:59;;;;;;;2.72;2.53;;;7.80;99.90;;;;;;4973672;28;20223;-82
2022/11/07 03:30:28;;;;;;;2.92;2.72;;;7.90;99.90;;;;;;4973780;28;20204;-82
2022/11/07 03:32:58;;;;;;;2.75;2.55;;;8.00;99.90;;;;;;4973981;28;20235;-82
2022/11/07 03:35:26;;;;;;;6.90;3.55;;;8.10;99.90;;;;;;4977836;28;20290;-82
2022/11/07 03:37:56;;;;;;;3.65;3.13;;;8.20;99.90;;;;;;4977147;28;20212;-82
2022/11/07 03:40:24;;;;;;;2.97;2.65;;;8.20;99.90;;;;;;4977807;28;20291;-82
2022/11/07 03:42:53;;;;;;;2.60;2.40;;;8.30;99.90;;;;;;4977146;28;20299;-82
2022/11/07 03:45:21;;;;;;;3.25;2.92;;;8.40;99.90;;;;;;4977404;28;20207;-82
2022/11/07 03:47:49;;;;;;;3.58;3.08;;;8.40;99.90;;;;;;4976973;28;20212;-82
2022/11/07 03:50:21;;;;;;;6.00;3.05;;;8.40;99.90;;;;;;4977301;28;20234;-82
2022/11/07 03:52:49;;;;;;;2.88;2.60;;;8.50;99.90;;;;;;4977213;28;20236;-82
2022/11/07 03:55:18;;;;;;;2.95;2.70;;;8.60;99.90;;;;;;4977175;28;20207;-82
2022/11/07 03:57:46;;;;;;;3.33;3.03;;;8.50;99.90;;;;;;4977134;28;20215;-82
2022/11/07 04:00:16;;;;;;;2.60;2.40;;;8.50;99.90;;;;;;4976962;28;20204;-82
2022/11/07 04:02:45;;;;;;;3.00;2.75;;;8.60;99.90;;;;;;4976688;28;20232;-82
2022/11/07 04:05:13;;;;;;;3.85;3.45;;;8.60;99.90;;;;;;4977026;28;20217;-82
2022/11/07 04:07:43;;;;;;;3.47;2.90;;;8.60;99.90;;;;;;4976972;28;20216;-82
2022/11/07 04:10:11;;;;;;;3.50;3.20;;;8.70;99.90;;;;;;4976966;28;20231;-82
2022/11/07 04:18:10;;;;;;;3.25;2.92;;;8.90;99.90;;;;;;4976819;28;20212;-82
2022/11/07 04:20:39;;;;;;;4.82;3.15;;;9.00;99.90;;;;;;4976848;28;20209;-82
2022/11/07 04:23:22;;;;;;;4.57;3.35;;;9.10;99.90;;;;;;4976458;28;20232;-82
2022/11/07 04:28:35;;;;;;;2.55;2.35;;;9.20;99.90;;;;;;4976829;28;20204;-82
2022/11/07 04:31:04;;;;;;;3.63;2.88;;;9.20;99.90;;;;;;4976642;28;20208;-82
2022/11/07 04:33:41;;;;;;;3.28;2.85;;;9.20;99.90;;;;;;4976545;28;20220;-82
2022/11/07 04:36:10;;;;;;;4.03;3.63;;;9.20;99.90;;;;;;4976359;28;20208;-82
2022/11/07 04:38:50;;;;;;;3.00;2.80;;;9.20;99.90;;;;;;4976083;28;20306;-82
2022/11/07 04:41:22;;;;;;;3.38;3.08;;;9.20;99.90;;;;;;4976444;28;20215;-82
2022/11/07 04:43:51;;;;;;;5.82;3.55;;;9.10;99.90;;;;;;4975938;28;20240;-82
2022/11/07 04:46:22;;;;;;;3.28;2.97;;;9.10;99.90;;;;;;4975193;28;20212;-82
2022/11/07 04:48:50;;;;;;;3.05;2.75;;;9.10;99.90;;;;;;4975904;28;20204;-82
2022/11/07 04:51:22;;;;;;;3.17;2.88;;;9.00;99.90;;;;;;4975911;28;20204;-82
2022/11/07 04:53:51;;;;;;;2.97;2.75;;;9.00;99.90;;;;;;4976287;28;20285;-82
2022/11/07 04:56:20;;;;;;;3.90;3.55;;;9.00;99.90;;;;;;4975951;28;20220;-83
2022/11/07 04:58:48;;;;;;;3.00;2.80;;;9.00;99.90;;;;;;4975949;28;20218;-82
2022/11/07 05:01:19;;;;;;;4.68;3.10;;;9.00;99.90;;;;;;4976308;28;20268;-82
2022/11/07 05:03:51;;;;;;;2.30;2.17;;;8.90;99.90;;;;;;4975895;28;20232;-81
2022/11/07 05:06:26;;;;;;;5.78;4.70;;;8.90;99.90;;;;;;4975923;28;20208;-83
2022/11/07 05:08:58;;;;;;;7.68;4.55;;;8.90;99.90;;;;;;4975622;28;20302;-82
2022/11/07 05:11:29;;;;;;;4.88;4.18;;;8.80;99.90;;;;;;4976168;28;20217;-83
2022/11/07 05:14:00;;;;;;;4.45;3.97;;;8.70;99.90;;;;;;4975698;28;20251;-81
2022/11/07 05:16:34;;;;;;;4.20;3.80;;;8.80;99.90;;;;;;4975321;28;20276;-82
2022/11/07 05:19:07;;;;;;;4.25;3.85;;;8.70;99.90;;;;;;4975880;28;20274;-83
2022/11/07 05:21:40;;;;;;;5.40;4.15;;;8.70;99.90;;;;;;4975567;28;20216;-82
2022/11/07 05:24:09;;;;;;;4.93;3.72;;;8.70;99.90;;;;;;4975352;28;20224;-82
2022/11/07 05:26:39;;;;;;;4.43;4.03;;;8.70;99.90;;;;;;4975144;28;20231;-82
2022/11/07 05:29:12;;;;;;;5.10;4.38;;;8.70;99.90;;;;;;4975458;28;20212;-82
2022/11/07 05:31:45;;;;;;;4.45;4.05;;;8.70;99.90;;;;;;4975392;28;20205;-82
2022/11/07 05:34:13;;;;;;;5.93;5.30;;;8.70;99.90;;;;;;4975336;28;20307;-83
2022/11/07 05:36:52;;;;;;;6.07;4.80;;;8.60;99.90;;;;;;4974467;28;20215;-82
2022/11/07 05:39:46;;;;;;;4.57;4.18;;;8.60;99.90;;;;;;4975508;28;20208;-83
2022/11/07 05:42:31;;;;;;;6.28;4.72;;;8.60;99.90;;;;;;4974738;28;20208;-83
2022/11/07 05:45:16;;;;;;;5.22;4.78;;;8.40;99.90;;;;;;4974869;28;20296;-83
2022/11/07 05:47:44;;;;;;;5.72;4.13;;;8.30;99.90;;;;;;4974737;28;20307;-84
2022/11/07 05:50:24;;;;;;;4.82;4.15;;;8.00;99.90;;;;;;4975211;28;20272;-84
2022/11/07 05:52:53;;;;;;;7.25;4.88;;;7.80;99.90;;;;;;4975030;28;20314;-84
2022/11/07 05:55:38;;;;;;;6.18;5.57;;;7.60;99.90;;;;;;4974378;28;20205;-84
2022/11/07 05:58:15;;;;;;;5.97;5.38;;;7.50;99.90;;;;;;4974133;28;20212;-84
2022/11/07 06:01:22;;;;;;;5.85;5.22;;;7.30;99.90;;;;;;4975387;28;20205;-84
2022/11/07 06:04:03;;;;;;;5.22;4.75;;;7.20;99.90;;;;;;4974465;28;20287;-84
2022/11/07 06:06:49;;;;;;;6.32;5.53;;;7.00;99.90;;;;;;4974859;28;20216;-84
2022/11/07 06:09:27;;;;;;;5.60;5.07;;;7.00;99.90;;;;;;4974599;28;20219;-84
2022/11/07 06:12:04;;;;;;;6.38;5.53;;;6.90;99.90;;;;;;4974814;28;20211;-84
2022/11/07 06:14:34;;;;;;;5.72;5.22;;;6.90;99.90;;;;;;4974163;28;20224;-83
2022/11/07 06:17:07;;;;;;;10.15;7.20;;;6.90;99.90;;;;;;4974491;28;20287;-84
2022/11/07 06:19:36;;;;;;;5.68;5.18;;;6.90;99.90;;;;;;4974498;28;20205;-83
2022/11/07 06:22:08;;;;;;;5.43;4.93;;;6.80;99.90;;;;;;4974201;28;20208;-83
2022/11/07 06:24:39;;;;;;;8.75;5.57;;;6.70;99.90;;;;;;4974239;28;20232;-83
2022/11/07 06:27:13;;;;;;;5.10;4.68;;;6.70;99.90;;;;;;4973880;28;20259;-84
2022/11/07 06:29:44;;;;;;;5.25;4.75;;;6.60;99.90;;;;;;4974367;28;20219;-83
2022/11/07 06:32:17;;;;;;;8.88;5.78;;;6.70;99.90;;;;;;4974174;28;20212;-83
2022/11/07 06:34:58;;;;;;;4.93;4.43;;;6.70;99.90;;;;;;4974000;28;20228;-84
2022/11/07 06:37:30;;;;;;;5.75;5.13;;;6.70;99.90;;;;;;4974086;28;20214;-83
2022/11/07 06:40:01;;;;;;;6.18;5.28;;;6.70;99.90;;;;;;4974348;28;20299;-83
2022/11/07 06:42:39;;;;;;;6.30;5.10;;;6.70;99.90;;;;;;4973550;28;20207;-83
2022/11/07 06:45:15;;;;;;;5.15;4.63;;;6.70;99.90;;;;;;4973775;28;20234;-85
2022/11/07 06:47:43;;;;;;;6.20;5.63;;;6.80;99.90;;;;;;4974006;28;20200;-83
2022/11/07 06:50:15;;;;;;;6.47;5.25;;;6.80;99.90;;;;;;4974212;28;20216;-83
2022/11/07 06:52:52;;;;;;;5.47;4.18;;;6.90;99.90;;;;;;4973920;28;20290;-84
2022/11/07 06:55:26;;;;;;;6.97;4.85;;;7.00;99.90;;;;;;4974169;28;20271;-84
2022/11/07 06:58:00;;;;;;;4.45;4.05;;;7.00;99.90;;;;;;4973802;28;20211;-84
2022/11/07 07:00:30;;;;;;;6.20;4.78;;;7.00;99.90;;;;;;4973253;28;20292;-82
2022/11/07 07:02:58;;;;;;;9.57;5.18;;;7.10;99.90;;;;;;4973826;28;20266;-82
2022/11/07 07:05:27;;;;;;;4.93;4.22;;;7.20;99.90;;;;;;4974368;28;20250;-82
2022/11/07 07:07:55;;;;;;;8.65;4.65;;;7.10;99.90;;;;;;4973692;28;20200;-82
2022/11/07 07:10:24;;;;;;;6.95;4.65;;;7.10;99.90;;;;;;4973936;28;20205;-82
2022/11/07 07:12:53;;;;;;;5.88;4.97;;;7.20;99.90;;;;;;4974612;28;20238;-83
2022/11/07 07:15:23;;;;;;;7.55;5.38;;;7.30;99.90;;;;;;4974341;28;20215;-82
2022/11/07 07:17:51;;;;;;;4.57;4.18;;;7.30;99.90;;;;;;4973874;28;20208;-82
2022/11/07 07:20:20;;;;;;;5.05;4.55;;;7.30;99.90;;;;;;4974239;28;20204;-82
2022/11/07 07:22:48;;;;;;;7.57;5.43;;;7.40;99.90;;;;;;4974377;28;20230;-82
2022/11/07 07:25:26;;;;;;;5.53;4.85;;;7.40;99.90;;;;;;4974655;28;20234;-82
2022/11/07 07:27:54;;;;;;;4.95;4.55;;;7.50;99.90;;;;;;4974119;28;20214;-82
2022/11/07 07:30:24;;;;;;;5.75;5.20;;;7.50;99.90;;;;;;4973843;28;20211;-82
2022/11/07 07:32:52;;;;;;;9.93;5.63;;;7.50;99.90;;;;;;4974021;28;20232;-83
2022/11/07 07:35:20;;;;;;;6.90;5.13;;;7.60;99.90;;;;;;4973512;28;20200;-82
2022/11/07 07:37:52;;;;;;;7.65;5.28;;;7.70;99.90;;;;;;4973473;28;20216;-83
2022/11/07 07:40:21;;;;;;;5.22;4.72;;;7.70;99.90;;;;;;4974298;28;20210;-82
2022/11/07 07:42:49;;;;;;;5.38;4.25;;;7.70;99.90;;;;;;4973502;28;20230;-82
2022/11/07 07:45:18;;;;;;;5.05;4.50;;;7.80;99.90;;;;;;4973630;28;20231;-82
2022/11/07 07:47:47;;;;;;;5.60;4.80;;;7.80;99.90;;;;;;4974024;28;20207;-82
2022/11/07 07:50:16;;;;;;;4.70;4.22;;;7.90;99.90;;;;;;4974330;28;20207;-82
2022/11/07 07:52:44;;;;;;;4.38;3.85;;;8.00;99.90;;;;;;4974144;28;20240;-82
2022/11/07 07:55:12;;;;;;;4.93;4.20;;;8.00;99.90;;;;;;4974163;28;20205;-82
2022/11/07 07:57:41;;;;;;;4.28;3.88;;;8.00;99.90;;;;;;4973879;28;20208;-82
2022/11/07 08:00:11;;;;;;;4.63;3.95;;;8.10;99.90;;;;;;4973552;28;20215;-82
2022/11/07 08:02:44;;;;;;;5.68;4.88;;;8.10;99.90;;;;;;4960413;28;20206;-82
2022/11/07 08:05:25;;;;;;;6.95;4.20;;;8.20;99.90;;;;;;4971835;28;20243;-84
2022/11/07 08:08:11;;;;;;;7.45;5.13;;;8.20;99.90;;;;;;4973237;28;20205;-83
2022/11/07 08:10:52;;;;;;;7.78;4.65;;;8.30;99.90;;;;;;4973852;28;20208;-82
2022/11/07 08:13:37;;;;;;;4.35;3.95;;;8.40;99.90;;;;;;4973325;28;20228;-82
2022/11/07 08:16:07;;;;;;;5.57;4.20;;;8.40;99.90;;;;;;4974149;28;20197;-82
2022/11/07 08:18:38;;;;;;;7.25;5.28;;;8.50;99.90;;;;;;4973660;28;20208;-82
2022/11/07 08:21:08;;;;;;;5.15;4.68;;;8.50;99.90;;;;;;4958370;29;20201;-82
2022/11/07 08:23:37;;;;;;;5.25;4.35;;;8.60;99.90;;;;;;4960725;28;20217;-82
2022/11/07 08:26:06;;;;;;;11.02;4.60;;;8.60;99.90;;;;;;4977261;28;20231;-82
2022/11/07 08:28:36;;;;;;;4.47;4.07;;;8.70;99.90;;;;;;4959327;28;20232;-83
2022/11/07 08:31:06;;;;;;;8.82;4.60;;;8.70;99.90;;;;;;4977000;28;20215;-82
2022/11/07 08:33:35;;;;;;;4.22;3.67;;;8.70;99.90;;;;;;4977389;28;20228;-82
2022/11/07 08:36:06;;;;;;;5.53;3.80;;;8.80;99.90;;;;;;4976790;28;20208;-82
2022/11/07 08:38:36;;;;;;;5.95;4.00;;;8.90;99.90;;;;;;4976893;28;20224;-82
2022/11/07 08:41:05;;;;;;;3.90;3.53;;;9.00;99.90;;;;;;4977248;28;20211;-83
2022/11/07 08:43:33;;;;;;;4.47;3.80;;;9.10;99.90;;;;;;4976805;28;20231;-82
2022/11/07 08:46:01;;;;;;;4.78;4.28;;;9.20;99.90;;;;;;4977057;28;20236;-83
2022/11/07 08:48:30;;;;;;;4.57;4.13;;;9.30;99.90;;;;;;4976917;28;20212;-82
2022/11/07 08:50:58;;;;;;;3.97;3.60;;;9.40;99.90;;;;;;4977300;28;20208;-82
2022/11/07 08:53:27;;;;;;;6.15;4.65;;;9.50;99.90;;;;;;4977021;28;20224;-81
2022/11/07 08:56:02;;;;;;;4.10;3.67;;;9.50;99.90;;;;;;4963618;28;20204;-80
2022/11/07 08:58:31;;;;;;;4.18;3.53;;;9.50;99.90;;;;;;4976311;28;20208;-82
2022/11/07 09:01:00;;;;;;;3.92;3.63;;;9.50;99.90;;;;;;4976803;28;20212;-84
2022/11/07 09:03:28;;;;;;;5.18;4.68;;;9.50;99.90;;;;;;4963878;28;20297;-82
2022/11/07 09:06:24;;;;;;;9.63;5.57;;;9.60;99.90;;;;;;4970057;28;20279;-82
2022/11/07 09:08:58;;;;;;;4.50;4.10;;;9.60;99.90;;;;;;4966080;28;20212;-82
2022/11/07 09:11:34;;;;;;;6.18;4.82;;;9.70;99.90;;;;;;4964977;28;20203;-82
2022/11/07 09:14:26;;;;;;;4.57;4.18;;;9.80;99.90;;;;;;4972731;28;20233;-82
2022/11/07 09:16:54;;;;;;;5.57;5.05;;;9.90;99.90;;;;;;4970066;28;20223;-82
2022/11/07 09:19:22;;;;;;;5.50;5.00;;;10.10;99.90;;;;;;4956890;28;20216;-81
2022/11/07 09:21:50;;;;;;;4.63;4.13;;;10.20;99.90;;;;;;4966295;28;20204;-82
2022/11/07 09:24:19;;;;;;;6.18;3.67;;;10.30;99.90;;;;;;4967916;28;20239;-82
2022/11/07 09:26:49;;;;;;;4.50;4.10;;;10.50;99.90;;;;;;4974998;28;20217;-82
2022/11/07 09:29:17;;;;;;;6.90;4.13;;;10.60;99.90;;;;;;4957142;28;20211;-82
2022/11/07 09:31:45;;;;;;;5.68;4.38;;;10.70;99.90;;;;;;4962990;28;20196;-82
2022/11/07 09:34:13;;;;;;;4.75;4.35;;;10.80;99.90;;;;;;4975831;28;20302;-82
2022/11/07 09:36:42;;;;;;;4.95;3.92;;;11.00;99.90;;;;;;4976036;28;20203;-83
2022/11/07 09:39:10;;;;;;;4.40;4.00;;;11.10;99.90;;;;;;4975661;28;20207;-82
2022/11/07 09:41:53;;;;;;;3.28;3.08;;;11.20;99.90;;;;;;4976242;28;20209;-81
2022/11/07 09:44:48;;;;;;;4.13;3.83;;;11.30;99.90;;;;;;4976037;28;20228;-82
2022/11/07 09:47:21;;;;;;;4.47;3.88;;;11.40;99.90;;;;;;4975426;28;20207;-83
2022/11/07 09:49:51;;;;;;;3.25;3.03;;;11.60;99.90;;;;;;4975707;28;20209;-82
2022/11/07 09:52:25;;;;;;;3.78;3.42;;;11.90;99.90;;;;;;4975130;28;20224;-82
2022/11/07 09:54:58;;;;;;;4.63;4.15;;;12.10;99.90;;;;;;4975138;28;20211;-82
2022/11/07 09:57:33;;;;;;;4.57;3.75;;;12.20;99.90;;;;;;4974871;28;20208;-83
2022/11/07 10:00:04;;;;;;;2.10;2.00;;;12.50;99.90;;;;;;4974961;28;20302;-82
2022/11/07 10:02:35;;;;;;;4.50;2.95;;;12.80;99.90;;;;;;4974571;28;20208;-82
2022/11/07 10:05:04;;;;;;;2.28;2.13;;;13.10;99.90;;;;;;4974391;28;20213;-82
2022/11/07 10:07:41;;;;;;;2.13;2.00;;;13.40;99.90;;;;;;4974226;28;20207;-82
2022/11/07 10:10:18;;;;;;;2.10;2.00;;;13.80;99.90;;;;;;4974369;28;20204;-82
2022/11/07 10:13:08;;;;;;;2.58;2.38;;;14.20;99.90;;;;;;4974522;28;20227;-82
2022/11/07 10:15:51;;;;;;;1.75;1.65;;;15.20;99.90;;;;;;4973845;28;20215;-82
2022/11/07 10:18:32;;;;;;;2.03;1.83;;;15.90;99.90;;;;;;4973668;28;20212;-89
2022/11/07 10:21:06;;;;;;;3.00;2.70;;;16.40;99.90;;;;;;4974059;28;20211;-81
2022/11/07 10:24:18;;;;;;;2.88;2.00;;;16.60;99.90;;;;;;4975022;28;20225;-82
2022/11/07 10:26:46;;;;;;;3.10;2.80;;;17.10;99.90;;;;;;4974256;28;20221;-82
2022/11/07 10:29:18;;;;;;;2.60;2.40;;;17.20;99.90;;;;;;4974988;28;20219;-82
2022/11/07 10:31:55;;;;;;;2.40;2.20;;;17.20;99.90;;;;;;4974418;28;20197;-82
2022/11/07 10:34:29;;;;;;;1.92;1.83;;;17.00;99.90;;;;;;4974972;28;20280;-82
2022/11/07 10:36:57;;;;;;;2.40;2.25;;;17.00;99.90;;;;;;4974554;28;20208;-82
2022/11/07 10:39:25;;;;;;;2.47;2.28;;;16.90;99.90;;;;;;4974469;28;20208;-82
2022/11/07 10:42:02;;;;;;;3.05;2.42;;;16.80;99.90;;;;;;4974601;28;20204;-82
2022/11/07 10:44:33;;;;;;;2.10;1.92;;;17.00;99.90;;;;;;4974031;28;20232;-82
2022/11/07 10:47:02;;;;;;;2.47;2.28;;;17.20;99.90;;;;;;4974099;28;20231;-81
2022/11/07 10:49:32;;;;;;;2.92;1.95;;;17.20;99.90;;;;;;4974573;28;20209;-83
2022/11/07 10:52:08;;;;;;;2.45;2.25;;;17.30;99.90;;;;;;4974532;28;20205;-75
2022/11/07 10:54:36;;;;;;;2.70;2.50;;;17.10;99.90;;;;;;4974413;28;20228;-82
2022/11/07 10:57:10;;;;;;;2.58;2.38;;;17.10;99.90;;;;;;4974471;28;20208;-82
2022/11/07 10:59:45;;;;;;;2.92;2.70;;;17.30;99.90;;;;;;4974585;28;20216;-81
2022/11/07 11:02:20;;;;;;;2.42;2.08;;;17.60;99.90;;;;;;4974157;28;20200;-80
2022/11/07 11:04:50;;;;;;;3.33;2.45;;;17.70;99.90;;;;;;4973864;28;20218;-81
2022/11/07 11:07:18;;;;;;;4.93;2.42;;;17.60;99.90;;;;;;4973034;28;20231;-80
2022/11/07 11:09:55;;;;;;;2.33;2.13;;;17.60;99.90;;;;;;4973794;28;20208;-80
2022/11/07 11:12:26;;;;;;;1.50;1.40;;;17.90;99.90;;;;;;4974535;28;20204;-80
2022/11/07 11:15:10;;;;;;;1.30;1.00;;;17.90;99.90;;;;;;4974603;28;20211;-80
2022/11/07 11:17:39;;;;;;;1.27;1.17;;;17.90;99.90;;;;;;4974382;28;20211;-80
2022/11/07 11:20:29;;;;;;;0.95;0.93;;;17.90;99.90;;;;;;4974614;28;20235;-80
2022/11/07 11:22:59;;;;;;;0.93;0.93;;;18.50;99.90;;;;;;4974260;28;20235;-80
2022/11/07 11:25:27;;;;;;;1.20;1.15;;;18.80;99.90;;;;;;4974525;28;20216;-80
2022/11/07 11:28:02;;;;;;;1.73;1.10;;;18.70;99.90;;;;;;4974079;28;20228;-81
2022/11/07 11:30:35;;;;;;;1.45;0.90;;;18.40;99.90;;;;;;4974442;28;20210;-81
2022/11/07 11:33:11;;;;;;;1.27;0.70;;;18.70;99.90;;;;;;4974451;28;20232;-81
2022/11/07 11:35:46;;;;;;;1.42;0.88;;;18.70;99.90;;;;;;4974518;28;20216;-81
2022/11/07 11:38:20;;;;;;;1.73;1.20;;;19.10;99.90;;;;;;4974557;28;20211;-81
2022/11/07 11:40:52;;;;;;;1.38;1.27;;;19.10;99.90;;;;;;4974292;28;20212;-81
2022/11/07 11:43:41;;;;;;;1.00;0.95;;;19.40;99.90;;;;;;4974394;28;20255;-81
2022/11/07 11:46:16;;;;;;;1.10;1.10;;;19.00;99.90;;;;;;4973935;28;20234;-80
2022/11/07 11:48:50;;;;;;;0.93;0.93;;;18.80;99.90;;;;;;4974001;28;20215;-80
2022/11/07 11:51:30;;;;;;;1.10;1.00;;;18.40;99.90;;;;;;4974298;28;20215;-81
2022/11/07 11:53:58;;;;;;;1.10;1.00;;;18.20;99.90;;;;;;4974943;28;20224;-80
2022/11/07 11:56:37;;;;;;;1.30;1.20;;;17.90;99.90;;;;;;4978197;28;20205;-81
2022/11/07 11:59:30;;;;;;;1.08;1.00;;;17.90;99.90;;;;;;4978192;28;20214;-80
2022/11/07 12:02:16;;;;;;;1.75;1.00;;;18.10;99.90;;;;;;4961894;28;20220;-81
2022/11/07 12:04:55;;;;;;;1.88;1.42;;;18.30;99.90;;;;;;4977996;28;20302;-81
2022/11/07 12:07:41;;;;;;;1.23;1.13;;;18.50;99.90;;;;;;4977951;28;20300;-81
2022/11/07 12:10:16;;;;;;;0.90;0.90;;;18.80;99.90;;;;;;4977611;28;20214;-81
2022/11/07 12:12:55;;;;;;;1.05;1.02;;;19.20;99.90;;;;;;4977218;28;20211;-80
2022/11/07 12:15:37;;;;;;;0.80;0.80;;;19.90;99.90;;;;;;4977214;28;20228;-81
2022/11/07 12:18:15;;;;;;;1.05;0.75;;;20.30;99.90;;;;;;4977485;28;20211;-81
2022/11/07 12:20:57;;;;;;;3.35;1.10;;;20.30;99.90;;;;;;4977508;28;20208;-81
2022/11/07 12:23:42;;;;;;;1.15;1.10;;;19.90;99.90;;;;;;4977307;28;20224;-85
2022/11/07 12:26:15;;;;;;;1.05;1.05;;;19.80;99.90;;;;;;4977461;28;20215;-79
2022/11/07 12:28:52;;;;;;;1.08;1.08;;;19.90;99.90;;;;;;4977208;28;20211;-80
2022/11/07 12:31:35;;;;;;;1.00;0.98;;;19.80;99.90;;;;;;4977133;28;20255;-80
2022/11/07 12:34:15;;;;;;;0.93;0.90;;;20.00;99.90;;;;;;4977376;28;20232;-85
2022/11/07 12:36:58;;;;;;;0.98;0.85;;;20.40;99.90;;;;;;4977158;28;20208;-92
2022/11/07 12:39:46;;;;;;;1.10;0.98;;;21.00;99.90;;;;;;4977349;28;20218;-92
2022/11/07 12:42:25;;;;;;;1.20;1.15;;;21.20;99.90;;;;;;4977955;28;20210;-92
2022/11/07 12:45:05;;;;;;;0.98;0.98;;;21.60;99.90;;;;;;4965278;28;20212;-91
2022/11/07 12:47:45;;;;;;;1.13;0.95;;;21.90;98.80;;;;;;4957889;29;20221;-91
2022/11/07 12:50:31;;;;;;;1.02;1.00;;;21.80;98.40;;;;;;4957855;29;20203;-91
2022/11/07 12:53:09;;;;;;;1.60;1.13;;;21.60;98.80;;;;;;4958972;28;20229;-92
2022/11/07 12:55:42;;;;;;;1.00;1.00;;;21.80;98.50;;;;;;4958697;28;20209;-90
2022/11/07 12:58:17;;;;;;;0.90;0.88;;;21.90;99.70;;;;;;4961773;28;20205;-91
2022/11/07 13:00:46;;;;;;;1.15;0.98;;;21.80;97.60;;;;;;4974673;28;20203;-91
2022/11/07 13:03:46;;;;;;;1.25;1.15;;;21.90;97.20;;;;;;4975771;28;20235;-90
2022/11/07 13:06:23;;;;;;;0.93;0.93;;;21.80;96.90;;;;;;4977731;28;20205;-91
2022/11/07 13:09:16;;;;;;;8.75;1.30;;;21.40;99.90;;;;;;4975824;28;20215;-90
2022/11/07 13:11:53;;;;;;;1.00;1.00;;;21.40;98.20;;;;;;4977006;28;20209;-89
2022/11/07 13:14:28;;;;;;;1.50;1.10;;;21.30;97.90;;;;;;4962073;28;20240;-90
2022/11/07 13:17:12;;;;;;;0.80;0.80;;;21.30;98.50;;;;;;4957331;29;20200;-90
2022/11/07 13:19:42;;;;;;;3.28;1.65;;;21.30;96.80;;;;;;4956800;28;20201;-90
2022/11/07 13:22:30;;;;;;;2.42;1.42;;;21.40;96.70;;;;;;4968887;28;20201;-79
2022/11/07 13:25:08;;;;;;;1.00;1.00;;;21.10;99.10;;;;;;4976416;28;20215;-85
2022/11/07 13:27:45;;;;;;;2.10;1.27;;;20.80;97.40;;;;;;4976121;28;20220;-84
2022/11/07 13:30:20;;;;;;;1.15;1.10;;;20.70;99.50;;;;;;4976468;28;20218;-86
2022/11/07 13:32:49;;;;;;;1.58;1.42;;;20.60;98.00;;;;;;4976277;28;20262;-80
2022/11/07 13:35:28;;;;;;;1.85;1.60;;;20.30;98.20;;;;;;4976027;28;20201;-78
2022/11/07 13:38:01;;;;;;;1.48;1.30;;;20.10;98.50;;;;;;4976708;28;20203;-86
2022/11/07 13:40:37;;;;;;;1.30;0.98;;;19.80;99.00;;;;;;4976234;28;20201;-86